sensor_id;sensor_type;location;lat;lon;timestamp;temperature;humidity
30063;DHT22;16889;67.864;24.990;2022-08-05T00:03:26;16.30;99.90
30063;DHT22;16889;67.864;24.990;2022-08-05T00:08:12;16.30;99.90
30063;DHT22;16889;67.864;24.990;2022-08-05T00:12:58;16.40;99.90
30063;DHT22;16889;67.864;24.990;2022-08-05T00:17:44;16.30;99.90
30063;DHT22;16889;67.864;24.990;2022-08-05T00:22:30;16.10;99.90
30063;DHT22;16889;67.864;24.990;2022-08-05T00:27:16;16.20;99.90
30063;DHT22;16889;67.864;24.990;2022-08-05T00:32:02;16.20;99.90
30063;DHT22;16889;67.864;24.990;2022-08-05T00:36:50;16.10;99.90
30063;DHT22;16889;67.864;24.990;2022-08-05T00:41:36;16.00;99.90
30063;DHT22;16889;67.864;24.990;2022-08-05T00:46:22;15.90;99.90
30063;DHT22;16889;67.864;24.990;2022-08-05T00:51:08;16.00;99.90
30063;DHT22;16889;67.864;24.990;2022-08-05T00:55:55;15.90;99.90
30063;DHT22;16889;67.864;24.990;2022-08-05T01:00:41;15.90;99.90
30063;DHT22;16889;67.864;24.990;2022-08-05T01:05:27;15.90;99.90
30063;DHT22;16889;67.864;24.990;2022-08-05T01:10:15;15.90;99.90
30063;DHT22;16889;67.864;24.990;2022-08-05T01:15:05;15.90;99.90
30063;DHT22;16889;67.864;24.990;2022-08-05T01:20:12;15.90;99.90
30063;DHT22;16889;67.864;24.990;2022-08-05T01:25:22;15.90;99.90
30063;DHT22;16889;67.864;24.990;2022-08-05T01:30:12;15.90;99.90
30063;DHT22;16889;67.864;24.990;2022-08-05T01:35:01;15.80;99.90
30063;DHT22;16889;67.864;24.990;2022-08-05T01:39:49;15.70;99.90
30063;DHT22;16889;67.864;24.990;2022-08-05T01:44:36;15.70;99.90
30063;DHT22;16889;67.864;24.990;2022-08-05T01:49:24;15.70;99.90
30063;DHT22;16889;67.864;24.990;2022-08-05T01:54:12;15.70;99.90
30063;DHT22;16889;67.864;24.990;2022-08-05T01:59:05;15.80;99.90
30063;DHT22;16889;67.864;24.990;2022-08-05T02:03:52;15.80;99.90
30063;DHT22;16889;67.864;24.990;2022-08-05T02:08:41;15.80;99.90
30063;DHT22;16889;67.864;24.990;2022-08-05T02:13:34;15.70;99.90
30063;DHT22;16889;67.864;24.990;2022-08-05T02:18:33;15.60;99.90
30063;DHT22;16889;67.864;24.990;2022-08-05T02:23:21;15.60;99.90
30063;DHT22;16889;67.864;24.990;2022-08-05T02:28:10;15.60;99.90
30063;DHT22;16889;67.864;24.990;2022-08-05T02:32:59;15.60;99.90
30063;DHT22;16889;67.864;24.990;2022-08-05T02:37:48;15.60;99.90
30063;DHT22;16889;67.864;24.990;2022-08-05T02:42:35;15.60;99.90
30063;DHT22;16889;67.864;24.990;2022-08-05T02:47:22;15.60;99.90
30063;DHT22;16889;67.864;24.990;2022-08-05T02:52:18;15.60;99.90
30063;DHT22;16889;67.864;24.990;2022-08-05T02:57:07;15.60;99.90
30063;DHT22;16889;67.864;24.990;2022-08-05T03:01:55;15.70;99.90
30063;DHT22;16889;67.864;24.990;2022-08-05T03:06:46;15.70;99.90
30063;DHT22;16889;67.864;24.990;2022-08-05T03:11:33;15.70;99.90
30063;DHT22;16889;67.864;24.990;2022-08-05T03:16:20;15.60;99.90
30063;DHT22;16889;67.864;24.990;2022-08-05T03:21:06;15.60;99.90
30063;DHT22;16889;67.864;24.990;2022-08-05T03:25:52;15.70;99.90
30063;DHT22;16889;67.864;24.990;2022-08-05T03:30:39;15.70;99.90
30063;DHT22;16889;67.864;24.990;2022-08-05T03:35:27;15.70;99.90
30063;DHT22;16889;67.864;24.990;2022-08-05T03:40:13;15.70;99.90
30063;DHT22;16889;67.864;24.990;2022-08-05T03:45:00;15.70;99.90
30063;DHT22;16889;67.864;24.990;2022-08-05T03:49:46;15.60;99.90
30063;DHT22;16889;67.864;24.990;2022-08-05T03:54:44;15.50;99.90
30063;DHT22;16889;67.864;24.990;2022-08-05T03:59:39;15.60;99.90
30063;DHT22;16889;67.864;24.990;2022-08-05T04:04:27;15.60;99.90
30063;DHT22;16889;67.864;24.990;2022-08-05T04:09:14;15.70;99.90
30063;DHT22;16889;67.864;24.990;2022-08-05T04:14:02;15.60;99.90
30063;DHT22;16889;67.864;24.990;2022-08-05T04:18:48;15.50;99.90
30063;DHT22;16889;67.864;24.990;2022-08-05T04:23:34;15.50;99.90
30063;DHT22;16889;67.864;24.990;2022-08-05T04:28:21;15.50;99.90
30063;DHT22;16889;67.864;24.990;2022-08-05T04:33:07;15.50;99.90
30063;DHT22;16889;67.864;24.990;2022-08-05T04:37:53;15.40;99.90
30063;DHT22;16889;67.864;24.990;2022-08-05T04:42:39;15.40;99.90
30063;DHT22;16889;67.864;24.990;2022-08-05T04:47:25;15.50;99.90
30063;DHT22;16889;67.864;24.990;2022-08-05T04:52:11;15.50;99.90
30063;DHT22;16889;67.864;24.990;2022-08-05T04:56:57;15.60;99.90
30063;DHT22;16889;67.864;24.990;2022-08-05T05:01:43;15.60;99.90
30063;DHT22;16889;67.864;24.990;2022-08-05T05:06:29;15.60;99.90
30063;DHT22;16889;67.864;24.990;2022-08-05T05:11:15;15.60;99.90
30063;DHT22;16889;67.864;24.990;2022-08-05T05:16:01;15.60;99.90
30063;DHT22;16889;67.864;24.990;2022-08-05T05:20:47;15.60;99.90
30063;DHT22;16889;67.864;24.990;2022-08-05T05:25:33;15.70;99.90
30063;DHT22;16889;67.864;24.990;2022-08-05T05:30:19;15.70;99.90
30063;DHT22;16889;67.864;24.990;2022-08-05T05:35:05;15.60;99.90
30063;DHT22;16889;67.864;24.990;2022-08-05T05:39:52;15.70;99.90
30063;DHT22;16889;67.864;24.990;2022-08-05T05:44:38;15.70;99.90
30063;DHT22;16889;67.864;24.990;2022-08-05T05:49:24;15.80;99.90
30063;DHT22;16889;67.864;24.990;2022-08-05T05:54:10;15.80;99.90
30063;DHT22;16889;67.864;24.990;2022-08-05T05:58:56;15.90;99.90
30063;DHT22;16889;67.864;24.990;2022-08-05T06:03:42;15.90;99.90
30063;DHT22;16889;67.864;24.990;2022-08-05T06:08:28;16.10;99.90
30063;DHT22;16889;67.864;24.990;2022-08-05T06:13:14;16.00;99.90
30063;DHT22;16889;67.864;24.990;2022-08-05T06:18:00;16.00;99.90
30063;DHT22;16889;67.864;24.990;2022-08-05T06:22:46;16.00;99.90
30063;DHT22;16889;67.864;24.990;2022-08-05T06:27:32;16.00;99.90
30063;DHT22;16889;67.864;24.990;2022-08-05T06:32:18;16.10;99.90
30063;DHT22;16889;67.864;24.990;2022-08-05T06:37:04;16.00;99.90
30063;DHT22;16889;67.864;24.990;2022-08-05T06:41:50;16.00;99.90
30063;DHT22;16889;67.864;24.990;2022-08-05T06:46:36;16.00;99.90
30063;DHT22;16889;67.864;24.990;2022-08-05T06:51:22;16.20;99.90
30063;DHT22;16889;67.864;24.990;2022-08-05T06:56:09;16.30;99.90
30063;DHT22;16889;67.864;24.990;2022-08-05T07:00:58;16.40;99.90
30063;DHT22;16889;67.864;24.990;2022-08-05T07:05:44;16.50;99.90
30063;DHT22;16889;67.864;24.990;2022-08-05T07:10:30;16.70;99.90
30063;DHT22;16889;67.864;24.990;2022-08-05T07:15:16;16.70;99.90
30063;DHT22;16889;67.864;24.990;2022-08-05T07:20:21;16.70;99.90
30063;DHT22;16889;67.864;24.990;2022-08-05T07:25:07;16.90;99.90
30063;DHT22;16889;67.864;24.990;2022-08-05T07:29:55;17.00;99.90
30063;DHT22;16889;67.864;24.990;2022-08-05T07:34:41;17.00;99.90
30063;DHT22;16889;67.864;24.990;2022-08-05T07:39:27;17.10;99.90
30063;DHT22;16889;67.864;24.990;2022-08-05T07:44:13;17.00;99.90
30063;DHT22;16889;67.864;24.990;2022-08-05T07:49:00;17.00;99.90
30063;DHT22;16889;67.864;24.990;2022-08-05T07:53:47;17.20;99.90
30063;DHT22;16889;67.864;24.990;2022-08-05T07:58:33;17.30;99.90
30063;DHT22;16889;67.864;24.990;2022-08-05T08:03:19;17.80;99.90
30063;DHT22;16889;67.864;24.990;2022-08-05T08:08:05;18.30;99.90
30063;DHT22;16889;67.864;24.990;2022-08-05T08:12:51;18.50;99.90
30063;DHT22;16889;67.864;24.990;2022-08-05T08:17:36;18.60;99.90
30063;DHT22;16889;67.864;24.990;2022-08-05T08:22:25;19.00;99.90
30063;DHT22;16889;67.864;24.990;2022-08-05T08:27:11;18.90;99.90
30063;DHT22;16889;67.864;24.990;2022-08-05T08:31:57;18.70;99.90
30063;DHT22;16889;67.864;24.990;2022-08-05T08:36:43;18.40;99.90
30063;DHT22;16889;67.864;24.990;2022-08-05T08:41:32;18.10;99.90
30063;DHT22;16889;67.864;24.990;2022-08-05T08:46:18;18.10;99.90
30063;DHT22;16889;67.864;24.990;2022-08-05T08:51:05;18.10;99.90
30063;DHT22;16889;67.864;24.990;2022-08-05T08:55:51;18.20;99.90
30063;DHT22;16889;67.864;24.990;2022-08-05T09:00:39;18.10;99.90
30063;DHT22;16889;67.864;24.990;2022-08-05T09:05:26;18.00;99.90
30063;DHT22;16889;67.864;24.990;2022-08-05T09:10:12;17.80;99.90
30063;DHT22;16889;67.864;24.990;2022-08-05T09:15:01;17.80;99.90
30063;DHT22;16889;67.864;24.990;2022-08-05T09:19:47;17.60;99.90
30063;DHT22;16889;67.864;24.990;2022-08-05T09:24:37;17.50;99.90
30063;DHT22;16889;67.864;24.990;2022-08-05T09:29:43;17.40;99.90
30063;DHT22;16889;67.864;24.990;2022-08-05T09:34:52;17.30;99.90
30063;DHT22;16889;67.864;24.990;2022-08-05T09:39:38;17.10;99.90
30063;DHT22;16889;67.864;24.990;2022-08-05T09:44:38;17.00;99.90
30063;DHT22;16889;67.864;24.990;2022-08-05T09:49:25;16.80;99.90
30063;DHT22;16889;67.864;24.990;2022-08-05T09:54:11;16.60;99.90
30063;DHT22;16889;67.864;24.990;2022-08-05T09:59:11;16.50;99.90
30063;DHT22;16889;67.864;24.990;2022-08-05T10:08:45;16.50;99.90
30063;DHT22;16889;67.864;24.990;2022-08-05T10:13:36;16.40;99.90
30063;DHT22;16889;67.864;24.990;2022-08-05T10:18:23;16.50;99.90
30063;DHT22;16889;67.864;24.990;2022-08-05T10:23:18;16.30;99.90
30063;DHT22;16889;67.864;24.990;2022-08-05T10:28:05;16.20;99.90
30063;DHT22;16889;67.864;24.990;2022-08-05T10:32:53;16.30;99.90
30063;DHT22;16889;67.864;24.990;2022-08-05T10:37:39;16.40;99.90
30063;DHT22;16889;67.864;24.990;2022-08-05T10:42:27;16.50;99.90
30063;DHT22;16889;67.864;24.990;2022-08-05T10:47:13;16.60;99.90
30063;DHT22;16889;67.864;24.990;2022-08-05T10:52:01;16.70;99.90
30063;DHT22;16889;67.864;24.990;2022-08-05T10:56:49;16.80;99.90
30063;DHT22;16889;67.864;24.990;2022-08-05T11:01:39;16.90;99.90
30063;DHT22;16889;67.864;24.990;2022-08-05T11:11:44;16.80;99.90
30063;DHT22;16889;67.864;24.990;2022-08-05T11:16:31;16.60;99.90
30063;DHT22;16889;67.864;24.990;2022-08-05T11:21:32;16.50;99.90
30063;DHT22;16889;67.864;24.990;2022-08-05T11:26:19;16.60;99.90
30063;DHT22;16889;67.864;24.990;2022-08-05T11:35:57;16.70;99.90
30063;DHT22;16889;67.864;24.990;2022-08-05T11:41:00;16.70;99.90
30063;DHT22;16889;67.864;24.990;2022-08-05T11:45:47;16.80;99.90
30063;DHT22;16889;67.864;24.990;2022-08-05T11:50:37;16.80;99.90
30063;DHT22;16889;67.864;24.990;2022-08-05T11:55:23;16.70;99.90
30063;DHT22;16889;67.864;24.990;2022-08-05T12:00:30;16.90;99.90
30063;DHT22;16889;67.864;24.990;2022-08-05T12:05:24;17.10;99.90
30063;DHT22;16889;67.864;24.990;2022-08-05T12:10:12;17.50;99.90
30063;DHT22;16889;67.864;24.990;2022-08-05T12:15:02;18.10;99.90
30063;DHT22;16889;67.864;24.990;2022-08-05T12:19:53;18.30;99.90
30063;DHT22;16889;67.864;24.990;2022-08-05T12:24:44;18.30;99.90
30063;DHT22;16889;67.864;24.990;2022-08-05T12:29:30;18.20;99.90
30063;DHT22;16889;67.864;24.990;2022-08-05T12:34:18;18.10;99.90
30063;DHT22;16889;67.864;24.990;2022-08-05T12:39:05;17.80;99.90
30063;DHT22;16889;67.864;24.990;2022-08-05T12:43:57;17.60;99.90
30063;DHT22;16889;67.864;24.990;2022-08-05T12:48:43;17.70;99.90
30063;DHT22;16889;67.864;24.990;2022-08-05T12:53:29;17.90;99.90
30063;DHT22;16889;67.864;24.990;2022-08-05T12:58:23;18.20;99.90
30063;DHT22;16889;67.864;24.990;2022-08-05T13:03:09;18.50;99.90
30063;DHT22;16889;67.864;24.990;2022-08-05T13:07:58;18.70;99.90
30063;DHT22;16889;67.864;24.990;2022-08-05T13:12:44;18.90;99.90
30063;DHT22;16889;67.864;24.990;2022-08-05T13:17:31;19.00;99.90
30063;DHT22;16889;67.864;24.990;2022-08-05T13:22:19;19.00;99.90
30063;DHT22;16889;67.864;24.990;2022-08-05T13:27:05;19.10;99.90
30063;DHT22;16889;67.864;24.990;2022-08-05T13:31:51;19.00;99.90
30063;DHT22;16889;67.864;24.990;2022-08-05T13:36:37;18.80;99.90
30063;DHT22;16889;67.864;24.990;2022-08-05T13:41:23;18.70;99.90
30063;DHT22;16889;67.864;24.990;2022-08-05T13:46:10;18.80;99.90
30063;DHT22;16889;67.864;24.990;2022-08-05T13:51:04;18.80;99.90
30063;DHT22;16889;67.864;24.990;2022-08-05T13:55:51;18.80;99.90
30063;DHT22;16889;67.864;24.990;2022-08-05T14:00:37;19.00;99.90
30063;DHT22;16889;67.864;24.990;2022-08-05T14:05:23;19.30;99.90
30063;DHT22;16889;67.864;24.990;2022-08-05T14:10:12;19.10;99.90
30063;DHT22;16889;67.864;24.990;2022-08-05T14:14:58;19.20;99.90
30063;DHT22;16889;67.864;24.990;2022-08-05T14:19:44;19.10;99.90
30063;DHT22;16889;67.864;24.990;2022-08-05T14:24:30;19.00;99.90
30063;DHT22;16889;67.864;24.990;2022-08-05T14:29:16;18.90;99.90
30063;DHT22;16889;67.864;24.990;2022-08-05T14:34:02;19.10;99.90
30063;DHT22;16889;67.864;24.990;2022-08-05T14:38:49;19.30;99.90
30063;DHT22;16889;67.864;24.990;2022-08-05T14:43:36;19.30;99.90
30063;DHT22;16889;67.864;24.990;2022-08-05T14:48:22;19.30;99.90
30063;DHT22;16889;67.864;24.990;2022-08-05T14:53:08;19.40;99.90
30063;DHT22;16889;67.864;24.990;2022-08-05T14:57:54;19.30;99.90
30063;DHT22;16889;67.864;24.990;2022-08-05T15:02:40;19.00;99.90
30063;DHT22;16889;67.864;24.990;2022-08-05T15:07:26;19.00;99.90
30063;DHT22;16889;67.864;24.990;2022-08-05T15:12:12;19.20;99.90
30063;DHT22;16889;67.864;24.990;2022-08-05T15:16:59;19.40;99.90
30063;DHT22;16889;67.864;24.990;2022-08-05T15:21:45;19.30;99.90
30063;DHT22;16889;67.864;24.990;2022-08-05T15:26:31;19.30;99.90
30063;DHT22;16889;67.864;24.990;2022-08-05T15:31:19;19.20;99.90
30063;DHT22;16889;67.864;24.990;2022-08-05T15:36:05;19.30;99.90
30063;DHT22;16889;67.864;24.990;2022-08-05T15:40:51;19.50;99.90
30063;DHT22;16889;67.864;24.990;2022-08-05T15:45:42;19.20;99.90
30063;DHT22;16889;67.864;24.990;2022-08-05T15:50:29;18.60;99.90
30063;DHT22;16889;67.864;24.990;2022-08-05T15:55:15;18.20;99.90
30063;DHT22;16889;67.864;24.990;2022-08-05T16:00:06;18.00;99.90
30063;DHT22;16889;67.864;24.990;2022-08-05T16:04:52;17.90;99.90
30063;DHT22;16889;67.864;24.990;2022-08-05T16:09:38;17.70;99.90
30063;DHT22;16889;67.864;24.990;2022-08-05T16:14:25;17.50;99.90
30063;DHT22;16889;67.864;24.990;2022-08-05T16:19:11;16.80;99.90
30063;DHT22;16889;67.864;24.990;2022-08-05T16:23:57;16.60;99.90
30063;DHT22;16889;67.864;24.990;2022-08-05T16:28:43;16.70;99.90
30063;DHT22;16889;67.864;24.990;2022-08-05T16:33:29;16.70;99.90
30063;DHT22;16889;67.864;24.990;2022-08-05T16:38:20;16.80;99.90
30063;DHT22;16889;67.864;24.990;2022-08-05T16:43:06;16.80;99.90
30063;DHT22;16889;67.864;24.990;2022-08-05T16:47:52;16.90;99.90
30063;DHT22;16889;67.864;24.990;2022-08-05T16:52:38;17.20;99.90
30063;DHT22;16889;67.864;24.990;2022-08-05T16:57:24;17.30;99.90
30063;DHT22;16889;67.864;24.990;2022-08-05T17:02:10;17.50;99.90
30063;DHT22;16889;67.864;24.990;2022-08-05T17:06:57;17.60;99.90
30063;DHT22;16889;67.864;24.990;2022-08-05T17:11:45;17.70;99.90
30063;DHT22;16889;67.864;24.990;2022-08-05T17:16:35;17.60;99.90
30063;DHT22;16889;67.864;24.990;2022-08-05T17:21:22;17.70;99.90
30063;DHT22;16889;67.864;24.990;2022-08-05T17:26:09;17.60;99.90
30063;DHT22;16889;67.864;24.990;2022-08-05T17:30:55;17.40;99.90
30063;DHT22;16889;67.864;24.990;2022-08-05T17:35:41;17.40;99.90
30063;DHT22;16889;67.864;24.990;2022-08-05T17:40:27;17.70;99.90
30063;DHT22;16889;67.864;24.990;2022-08-05T17:45:13;17.80;99.90
30063;DHT22;16889;67.864;24.990;2022-08-05T17:50:00;17.90;99.90
30063;DHT22;16889;67.864;24.990;2022-08-05T17:54:47;17.80;99.90
30063;DHT22;16889;67.864;24.990;2022-08-05T17:59:33;17.80;99.90
30063;DHT22;16889;67.864;24.990;2022-08-05T18:04:18;17.80;99.90
30063;DHT22;16889;67.864;24.990;2022-08-05T18:09:04;17.80;99.90
30063;DHT22;16889;67.864;24.990;2022-08-05T18:13:51;17.80;99.90
30063;DHT22;16889;67.864;24.990;2022-08-05T18:18:37;17.60;99.90
30063;DHT22;16889;67.864;24.990;2022-08-05T18:23:23;17.40;99.90
30063;DHT22;16889;67.864;24.990;2022-08-05T18:28:09;17.40;99.90
30063;DHT22;16889;67.864;24.990;2022-08-05T18:32:55;17.30;99.90
30063;DHT22;16889;67.864;24.990;2022-08-05T18:37:42;17.20;99.90
30063;DHT22;16889;67.864;24.990;2022-08-05T18:42:28;17.20;99.90
30063;DHT22;16889;67.864;24.990;2022-08-05T18:47:14;17.20;99.90
30063;DHT22;16889;67.864;24.990;2022-08-05T18:52:00;17.10;99.90
30063;DHT22;16889;67.864;24.990;2022-08-05T18:57:04;16.90;99.90
30063;DHT22;16889;67.864;24.990;2022-08-05T19:01:50;16.60;99.90
30063;DHT22;16889;67.864;24.990;2022-08-05T19:06:38;16.60;99.90
30063;DHT22;16889;67.864;24.990;2022-08-05T19:11:28;16.60;99.90
30063;DHT22;16889;67.864;24.990;2022-08-05T19:16:14;16.50;99.90
30063;DHT22;16889;67.864;24.990;2022-08-05T19:21:00;16.50;99.90
30063;DHT22;16889;67.864;24.990;2022-08-05T19:25:46;16.50;99.90
30063;DHT22;16889;67.864;24.990;2022-08-05T19:30:32;16.50;99.90
30063;DHT22;16889;67.864;24.990;2022-08-05T19:35:18;16.40;99.90
30063;DHT22;16889;67.864;24.990;2022-08-05T19:40:04;16.30;99.90
30063;DHT22;16889;67.864;24.990;2022-08-05T19:44:51;16.20;99.90
30063;DHT22;16889;67.864;24.990;2022-08-05T19:49:37;16.10;99.90
30063;DHT22;16889;67.864;24.990;2022-08-05T19:54:23;16.00;99.90
30063;DHT22;16889;67.864;24.990;2022-08-05T19:59:10;16.00;99.90
30063;DHT22;16889;67.864;24.990;2022-08-05T20:03:57;16.00;99.90
30063;DHT22;16889;67.864;24.990;2022-08-05T20:08:43;15.90;99.90
30063;DHT22;16889;67.864;24.990;2022-08-05T20:13:32;15.80;99.90
30063;DHT22;16889;67.864;24.990;2022-08-05T20:18:18;15.80;99.90
30063;DHT22;16889;67.864;24.990;2022-08-05T20:23:04;15.60;99.90
30063;DHT22;16889;67.864;24.990;2022-08-05T20:27:50;15.60;99.90
30063;DHT22;16889;67.864;24.990;2022-08-05T20:32:36;15.80;99.90
30063;DHT22;16889;67.864;24.990;2022-08-05T20:37:23;15.80;99.90
30063;DHT22;16889;67.864;24.990;2022-08-05T20:42:09;15.60;99.90
30063;DHT22;16889;67.864;24.990;2022-08-05T20:46:57;15.40;99.90
30063;DHT22;16889;67.864;24.990;2022-08-05T20:51:43;15.40;99.90
30063;DHT22;16889;67.864;24.990;2022-08-05T20:56:29;15.30;99.90
30063;DHT22;16889;67.864;24.990;2022-08-05T21:01:15;15.10;99.90
30063;DHT22;16889;67.864;24.990;2022-08-05T21:06:01;14.90;99.90
30063;DHT22;16889;67.864;24.990;2022-08-05T21:10:47;14.70;99.90
30063;DHT22;16889;67.864;24.990;2022-08-05T21:15:33;14.40;99.90
30063;DHT22;16889;67.864;24.990;2022-08-05T21:20:19;14.30;99.90
30063;DHT22;16889;67.864;24.990;2022-08-05T21:25:05;14.20;99.90
30063;DHT22;16889;67.864;24.990;2022-08-05T21:29:51;14.00;99.90
30063;DHT22;16889;67.864;24.990;2022-08-05T21:34:37;14.20;99.90
30063;DHT22;16889;67.864;24.990;2022-08-05T21:39:23;14.30;99.90
30063;DHT22;16889;67.864;24.990;2022-08-05T21:44:09;14.20;99.90
30063;DHT22;16889;67.864;24.990;2022-08-05T21:48:55;14.10;99.90
30063;DHT22;16889;67.864;24.990;2022-08-05T21:53:41;14.20;99.90
30063;DHT22;16889;67.864;24.990;2022-08-05T21:58:28;14.00;99.90
30063;DHT22;16889;67.864;24.990;2022-08-05T22:03:14;13.70;99.90
30063;DHT22;16889;67.864;24.990;2022-08-05T22:08:00;13.50;99.90
30063;DHT22;16889;67.864;24.990;2022-08-05T22:12:46;13.40;99.90
30063;DHT22;16889;67.864;24.990;2022-08-05T22:17:31;13.40;99.90
30063;DHT22;16889;67.864;24.990;2022-08-05T22:22:17;13.40;99.90
30063;DHT22;16889;67.864;24.990;2022-08-05T22:27:04;13.40;99.90
30063;DHT22;16889;67.864;24.990;2022-08-05T22:32:08;13.50;99.90
30063;DHT22;16889;67.864;24.990;2022-08-05T22:36:56;13.40;99.90
30063;DHT22;16889;67.864;24.990;2022-08-05T22:41:42;13.20;99.90
30063;DHT22;16889;67.864;24.990;2022-08-05T22:46:28;13.00;99.90
30063;DHT22;16889;67.864;24.990;2022-08-05T22:51:14;12.90;99.90
30063;DHT22;16889;67.864;24.990;2022-08-05T22:56:00;13.00;99.90
30063;DHT22;16889;67.864;24.990;2022-08-05T23:00:46;13.00;99.90
30063;DHT22;16889;67.864;24.990;2022-08-05T23:05:32;13.00;99.90
30063;DHT22;16889;67.864;24.990;2022-08-05T23:10:19;12.70;99.90
30063;DHT22;16889;67.864;24.990;2022-08-05T23:15:06;12.90;99.90
30063;DHT22;16889;67.864;24.990;2022-08-05T23:19:54;13.10;99.90
30063;DHT22;16889;67.864;24.990;2022-08-05T23:24:40;13.10;99.90
30063;DHT22;16889;67.864;24.990;2022-08-05T23:29:27;13.10;99.90
30063;DHT22;16889;67.864;24.990;2022-08-05T23:34:13;12.80;99.90
30063;DHT22;16889;67.864;24.990;2022-08-05T23:38:58;12.80;99.90
30063;DHT22;16889;67.864;24.990;2022-08-05T23:43:44;12.80;99.90
30063;DHT22;16889;67.864;24.990;2022-08-05T23:48:30;12.80;99.90
30063;DHT22;16889;67.864;24.990;2022-08-05T23:53:16;12.80;99.90
30063;DHT22;16889;67.864;24.990;2022-08-05T23:58:02;12.80;99.90
